sensor_id;sensor_type;location;lat;lon;timestamp;temperature;humidity
22629;DHT22;11481;53.694;9.910;2023-12-22T00:01:26;6.10;99.90
22629;DHT22;11481;53.694;9.910;2023-12-22T00:03:53;6.10;99.90
22629;DHT22;11481;53.694;9.910;2023-12-22T00:06:20;6.10;99.90
22629;DHT22;11481;53.694;9.910;2023-12-22T00:08:46;6.10;99.90
22629;DHT22;11481;53.694;9.910;2023-12-22T00:11:13;6.10;99.90
22629;DHT22;11481;53.694;9.910;2023-12-22T00:13:40;6.00;99.90
22629;DHT22;11481;53.694;9.910;2023-12-22T00:16:07;5.90;99.90
22629;DHT22;11481;53.694;9.910;2023-12-22T00:18:33;6.00;99.90
22629;DHT22;11481;53.694;9.910;2023-12-22T00:21:00;5.90;99.90
22629;DHT22;11481;53.694;9.910;2023-12-22T00:23:27;6.00;99.90
22629;DHT22;11481;53.694;9.910;2023-12-22T00:25:53;6.00;99.90
22629;DHT22;11481;53.694;9.910;2023-12-22T00:28:20;6.00;99.90
22629;DHT22;11481;53.694;9.910;2023-12-22T00:30:47;5.90;99.90
22629;DHT22;11481;53.694;9.910;2023-12-22T00:33:13;6.00;99.90
22629;DHT22;11481;53.694;9.910;2023-12-22T00:35:40;6.00;99.90
22629;DHT22;11481;53.694;9.910;2023-12-22T00:38:07;6.00;99.90
22629;DHT22;11481;53.694;9.910;2023-12-22T00:40:34;6.00;99.90
22629;DHT22;11481;53.694;9.910;2023-12-22T00:43:01;6.00;99.90
22629;DHT22;11481;53.694;9.910;2023-12-22T00:45:28;6.10;99.90
22629;DHT22;11481;53.694;9.910;2023-12-22T00:47:54;6.00;99.90
22629;DHT22;11481;53.694;9.910;2023-12-22T00:50:21;6.10;99.90
22629;DHT22;11481;53.694;9.910;2023-12-22T00:52:48;6.20;99.90
22629;DHT22;11481;53.694;9.910;2023-12-22T00:55:15;6.30;99.90
22629;DHT22;11481;53.694;9.910;2023-12-22T00:57:42;6.20;99.90
22629;DHT22;11481;53.694;9.910;2023-12-22T01:00:09;6.20;99.90
22629;DHT22;11481;53.694;9.910;2023-12-22T01:02:38;6.20;99.90
22629;DHT22;11481;53.694;9.910;2023-12-22T01:05:05;6.20;99.90
22629;DHT22;11481;53.694;9.910;2023-12-22T01:07:32;6.20;99.90
22629;DHT22;11481;53.694;9.910;2023-12-22T01:09:59;6.10;99.90
22629;DHT22;11481;53.694;9.910;2023-12-22T01:12:28;6.10;99.90
22629;DHT22;11481;53.694;9.910;2023-12-22T01:14:56;6.00;99.90
22629;DHT22;11481;53.694;9.910;2023-12-22T01:17:23;5.70;99.90
22629;DHT22;11481;53.694;9.910;2023-12-22T01:19:50;5.60;99.90
22629;DHT22;11481;53.694;9.910;2023-12-22T01:22:18;5.40;99.90
22629;DHT22;11481;53.694;9.910;2023-12-22T01:24:44;5.20;99.90
22629;DHT22;11481;53.694;9.910;2023-12-22T01:27:12;4.90;99.90
22629;DHT22;11481;53.694;9.910;2023-12-22T01:29:39;4.60;99.90
22629;DHT22;11481;53.694;9.910;2023-12-22T01:32:06;4.40;99.90
22629;DHT22;11481;53.694;9.910;2023-12-22T01:34:33;4.10;99.90
22629;DHT22;11481;53.694;9.910;2023-12-22T01:37:00;4.00;99.90
22629;DHT22;11481;53.694;9.910;2023-12-22T01:39:26;4.00;99.90
22629;DHT22;11481;53.694;9.910;2023-12-22T01:41:53;4.00;99.90
22629;DHT22;11481;53.694;9.910;2023-12-22T01:44:20;4.00;99.90
22629;DHT22;11481;53.694;9.910;2023-12-22T01:46:47;4.00;99.90
22629;DHT22;11481;53.694;9.910;2023-12-22T01:49:14;4.10;99.90
22629;DHT22;11481;53.694;9.910;2023-12-22T01:51:41;4.10;99.90
22629;DHT22;11481;53.694;9.910;2023-12-22T01:54:09;4.00;99.90
22629;DHT22;11481;53.694;9.910;2023-12-22T01:56:36;4.10;99.90
22629;DHT22;11481;53.694;9.910;2023-12-22T01:59:03;4.10;99.90
22629;DHT22;11481;53.694;9.910;2023-12-22T02:01:31;4.00;99.90
22629;DHT22;11481;53.694;9.910;2023-12-22T02:03:59;3.90;99.90
22629;DHT22;11481;53.694;9.910;2023-12-22T02:06:26;3.90;99.90
22629;DHT22;11481;53.694;9.910;2023-12-22T02:08:57;3.80;99.90
22629;DHT22;11481;53.694;9.910;2023-12-22T02:11:24;3.80;99.90
22629;DHT22;11481;53.694;9.910;2023-12-22T02:13:51;4.20;99.90
22629;DHT22;11481;53.694;9.910;2023-12-22T02:16:22;3.90;99.90
22629;DHT22;11481;53.694;9.910;2023-12-22T02:18:55;3.90;99.90
22629;DHT22;11481;53.694;9.910;2023-12-22T02:21:22;4.00;99.90
22629;DHT22;11481;53.694;9.910;2023-12-22T02:23:49;4.20;99.90
22629;DHT22;11481;53.694;9.910;2023-12-22T02:26:29;4.20;99.90
22629;DHT22;11481;53.694;9.910;2023-12-22T02:29:00;4.30;99.90
22629;DHT22;11481;53.694;9.910;2023-12-22T02:31:37;4.40;99.90
22629;DHT22;11481;53.694;9.910;2023-12-22T02:34:15;4.40;99.90
22629;DHT22;11481;53.694;9.910;2023-12-22T02:36:44;4.40;99.90
22629;DHT22;11481;53.694;9.910;2023-12-22T02:39:13;4.30;99.90
22629;DHT22;11481;53.694;9.910;2023-12-22T02:41:41;4.30;99.90
22629;DHT22;11481;53.694;9.910;2023-12-22T02:44:08;4.20;99.90
22629;DHT22;11481;53.694;9.910;2023-12-22T02:46:35;4.20;99.90
22629;DHT22;11481;53.694;9.910;2023-12-22T02:49:02;4.30;99.90
22629;DHT22;11481;53.694;9.910;2023-12-22T02:51:28;4.40;99.90
22629;DHT22;11481;53.694;9.910;2023-12-22T02:53:55;4.40;99.90
22629;DHT22;11481;53.694;9.910;2023-12-22T02:56:22;4.40;99.90
22629;DHT22;11481;53.694;9.910;2023-12-22T02:58:48;4.20;99.90
22629;DHT22;11481;53.694;9.910;2023-12-22T03:01:15;4.10;99.90
22629;DHT22;11481;53.694;9.910;2023-12-22T03:03:42;4.00;99.90
22629;DHT22;11481;53.694;9.910;2023-12-22T03:06:08;3.90;99.90
22629;DHT22;11481;53.694;9.910;2023-12-22T03:08:35;3.90;99.90
22629;DHT22;11481;53.694;9.910;2023-12-22T03:11:02;3.80;99.90
22629;DHT22;11481;53.694;9.910;2023-12-22T03:13:29;3.80;99.90
22629;DHT22;11481;53.694;9.910;2023-12-22T03:15:55;3.80;99.90
22629;DHT22;11481;53.694;9.910;2023-12-22T03:18:22;3.80;99.90
22629;DHT22;11481;53.694;9.910;2023-12-22T03:20:49;3.80;99.90
22629;DHT22;11481;53.694;9.910;2023-12-22T03:23:16;3.70;99.90
22629;DHT22;11481;53.694;9.910;2023-12-22T03:25:42;3.70;99.90
22629;DHT22;11481;53.694;9.910;2023-12-22T03:28:09;3.70;99.90
22629;DHT22;11481;53.694;9.910;2023-12-22T03:30:36;3.70;99.90
22629;DHT22;11481;53.694;9.910;2023-12-22T03:33:04;3.70;99.90
22629;DHT22;11481;53.694;9.910;2023-12-22T03:35:31;3.70;99.90
22629;DHT22;11481;53.694;9.910;2023-12-22T03:37:58;3.70;99.90
22629;DHT22;11481;53.694;9.910;2023-12-22T03:40:24;3.80;99.90
22629;DHT22;11481;53.694;9.910;2023-12-22T03:42:51;3.80;99.90
22629;DHT22;11481;53.694;9.910;2023-12-22T03:45:18;3.80;99.90
22629;DHT22;11481;53.694;9.910;2023-12-22T03:47:45;3.80;99.90
22629;DHT22;11481;53.694;9.910;2023-12-22T03:50:12;3.70;99.90
22629;DHT22;11481;53.694;9.910;2023-12-22T03:52:38;3.80;99.90
22629;DHT22;11481;53.694;9.910;2023-12-22T03:55:05;3.80;99.90
22629;DHT22;11481;53.694;9.910;2023-12-22T03:57:32;3.90;99.90
22629;DHT22;11481;53.694;9.910;2023-12-22T03:59:59;3.90;99.90
22629;DHT22;11481;53.694;9.910;2023-12-22T04:02:25;3.90;99.90
22629;DHT22;11481;53.694;9.910;2023-12-22T04:04:52;4.00;99.90
22629;DHT22;11481;53.694;9.910;2023-12-22T04:07:19;4.00;99.90
22629;DHT22;11481;53.694;9.910;2023-12-22T04:09:46;4.10;99.90
22629;DHT22;11481;53.694;9.910;2023-12-22T04:12:12;4.20;99.90
22629;DHT22;11481;53.694;9.910;2023-12-22T04:14:39;4.30;99.90
22629;DHT22;11481;53.694;9.910;2023-12-22T04:17:05;4.50;99.90
22629;DHT22;11481;53.694;9.910;2023-12-22T04:19:32;4.60;99.90
22629;DHT22;11481;53.694;9.910;2023-12-22T04:21:59;4.70;99.90
22629;DHT22;11481;53.694;9.910;2023-12-22T04:24:26;4.70;99.90
22629;DHT22;11481;53.694;9.910;2023-12-22T04:26:52;4.80;99.90
22629;DHT22;11481;53.694;9.910;2023-12-22T04:29:19;4.80;99.90
22629;DHT22;11481;53.694;9.910;2023-12-22T04:31:46;4.80;99.90
22629;DHT22;11481;53.694;9.910;2023-12-22T04:34:15;4.70;99.90
22629;DHT22;11481;53.694;9.910;2023-12-22T04:36:42;4.70;99.90
22629;DHT22;11481;53.694;9.910;2023-12-22T04:39:09;4.70;99.90
22629;DHT22;11481;53.694;9.910;2023-12-22T04:41:36;4.70;99.90
22629;DHT22;11481;53.694;9.910;2023-12-22T04:44:02;5.10;99.90
22629;DHT22;11481;53.694;9.910;2023-12-22T04:46:30;4.70;99.90
22629;DHT22;11481;53.694;9.910;2023-12-22T04:48:57;4.60;99.90
22629;DHT22;11481;53.694;9.910;2023-12-22T04:51:24;4.70;99.90
22629;DHT22;11481;53.694;9.910;2023-12-22T04:53:50;4.60;99.90
22629;DHT22;11481;53.694;9.910;2023-12-22T04:56:17;4.70;99.90
22629;DHT22;11481;53.694;9.910;2023-12-22T04:58:44;4.70;99.90
22629;DHT22;11481;53.694;9.910;2023-12-22T05:01:11;4.70;99.90
22629;DHT22;11481;53.694;9.910;2023-12-22T05:03:37;4.70;99.90
22629;DHT22;11481;53.694;9.910;2023-12-22T05:06:04;4.70;99.90
22629;DHT22;11481;53.694;9.910;2023-12-22T05:08:31;4.80;99.90
22629;DHT22;11481;53.694;9.910;2023-12-22T05:10:57;4.90;99.90
22629;DHT22;11481;53.694;9.910;2023-12-22T05:13:24;5.00;99.90
22629;DHT22;11481;53.694;9.910;2023-12-22T05:15:51;5.00;99.90
22629;DHT22;11481;53.694;9.910;2023-12-22T05:18:18;4.70;99.90
22629;DHT22;11481;53.694;9.910;2023-12-22T05:20:45;4.50;99.90
22629;DHT22;11481;53.694;9.910;2023-12-22T05:23:12;4.40;99.90
22629;DHT22;11481;53.694;9.910;2023-12-22T05:25:39;4.70;99.90
22629;DHT22;11481;53.694;9.910;2023-12-22T05:28:07;4.30;99.90
22629;DHT22;11481;53.694;9.910;2023-12-22T05:30:33;4.30;99.90
22629;DHT22;11481;53.694;9.910;2023-12-22T05:33:00;4.30;99.90
22629;DHT22;11481;53.694;9.910;2023-12-22T05:35:27;4.40;99.90
22629;DHT22;11481;53.694;9.910;2023-12-22T05:37:54;4.00;99.90
22629;DHT22;11481;53.694;9.910;2023-12-22T05:40:21;3.20;99.90
22629;DHT22;11481;53.694;9.910;2023-12-22T05:42:47;3.00;99.90
22629;DHT22;11481;53.694;9.910;2023-12-22T05:45:14;2.60;99.90
22629;DHT22;11481;53.694;9.910;2023-12-22T05:47:41;2.40;99.90
22629;DHT22;11481;53.694;9.910;2023-12-22T05:50:08;2.40;99.90
22629;DHT22;11481;53.694;9.910;2023-12-22T05:52:36;2.20;99.90
22629;DHT22;11481;53.694;9.910;2023-12-22T05:55:03;2.20;99.90
22629;DHT22;11481;53.694;9.910;2023-12-22T05:57:30;2.10;99.90
22629;DHT22;11481;53.694;9.910;2023-12-22T05:59:57;2.00;99.90
22629;DHT22;11481;53.694;9.910;2023-12-22T06:02:25;2.00;99.90
22629;DHT22;11481;53.694;9.910;2023-12-22T06:04:52;2.00;99.90
22629;DHT22;11481;53.694;9.910;2023-12-22T06:07:18;2.10;99.90
22629;DHT22;11481;53.694;9.910;2023-12-22T06:09:46;2.10;99.90
22629;DHT22;11481;53.694;9.910;2023-12-22T06:12:12;2.20;99.90
22629;DHT22;11481;53.694;9.910;2023-12-22T06:14:39;2.20;99.90
22629;DHT22;11481;53.694;9.910;2023-12-22T06:17:06;2.30;99.90
22629;DHT22;11481;53.694;9.910;2023-12-22T06:19:34;2.40;99.90
22629;DHT22;11481;53.694;9.910;2023-12-22T06:22:01;2.40;99.90
22629;DHT22;11481;53.694;9.910;2023-12-22T06:24:28;2.40;99.90
22629;DHT22;11481;53.694;9.910;2023-12-22T06:26:55;2.50;99.90
22629;DHT22;11481;53.694;9.910;2023-12-22T06:29:22;2.50;99.90
22629;DHT22;11481;53.694;9.910;2023-12-22T06:31:49;2.60;99.90
22629;DHT22;11481;53.694;9.910;2023-12-22T06:34:17;2.60;99.90
22629;DHT22;11481;53.694;9.910;2023-12-22T06:36:44;2.60;99.90
22629;DHT22;11481;53.694;9.910;2023-12-22T06:39:11;2.80;99.90
22629;DHT22;11481;53.694;9.910;2023-12-22T06:41:37;3.00;99.90
22629;DHT22;11481;53.694;9.910;2023-12-22T06:44:04;3.20;99.90
22629;DHT22;11481;53.694;9.910;2023-12-22T06:46:31;3.30;99.90
22629;DHT22;11481;53.694;9.910;2023-12-22T06:48:58;3.40;99.90
22629;DHT22;11481;53.694;9.910;2023-12-22T06:51:30;3.50;99.90
22629;DHT22;11481;53.694;9.910;2023-12-22T06:53:58;3.60;99.90
22629;DHT22;11481;53.694;9.910;2023-12-22T06:56:31;3.70;99.90
22629;DHT22;11481;53.694;9.910;2023-12-22T06:58:58;3.80;99.90
22629;DHT22;11481;53.694;9.910;2023-12-22T07:01:30;3.80;99.90
22629;DHT22;11481;53.694;9.910;2023-12-22T07:03:58;4.00;99.90
22629;DHT22;11481;53.694;9.910;2023-12-22T07:06:29;4.10;99.90
22629;DHT22;11481;53.694;9.910;2023-12-22T07:11:39;4.10;99.90
22629;DHT22;11481;53.694;9.910;2023-12-22T07:14:06;4.10;99.90
22629;DHT22;11481;53.694;9.910;2023-12-22T07:16:35;4.10;99.90
22629;DHT22;11481;53.694;9.910;2023-12-22T07:19:02;4.10;99.90
22629;DHT22;11481;53.694;9.910;2023-12-22T07:21:29;4.10;99.90
22629;DHT22;11481;53.694;9.910;2023-12-22T07:23:55;4.20;99.90
22629;DHT22;11481;53.694;9.910;2023-12-22T07:26:22;4.20;99.90
22629;DHT22;11481;53.694;9.910;2023-12-22T07:28:50;4.30;99.90
22629;DHT22;11481;53.694;9.910;2023-12-22T07:31:19;4.30;99.90
22629;DHT22;11481;53.694;9.910;2023-12-22T07:33:46;4.30;99.90
22629;DHT22;11481;53.694;9.910;2023-12-22T07:36:14;4.30;99.90
22629;DHT22;11481;53.694;9.910;2023-12-22T07:38:41;4.30;99.90
22629;DHT22;11481;53.694;9.910;2023-12-22T07:41:08;4.30;99.90
22629;DHT22;11481;53.694;9.910;2023-12-22T07:43:37;4.20;99.90
22629;DHT22;11481;53.694;9.910;2023-12-22T07:46:03;4.10;99.90
22629;DHT22;11481;53.694;9.910;2023-12-22T07:48:30;4.00;99.90
22629;DHT22;11481;53.694;9.910;2023-12-22T07:50:57;3.90;99.90
22629;DHT22;11481;53.694;9.910;2023-12-22T07:53:24;3.90;99.90
22629;DHT22;11481;53.694;9.910;2023-12-22T07:55:51;3.80;99.90
22629;DHT22;11481;53.694;9.910;2023-12-22T07:58:18;3.80;99.90
22629;DHT22;11481;53.694;9.910;2023-12-22T08:00:46;3.90;99.90
22629;DHT22;11481;53.694;9.910;2023-12-22T08:03:12;3.90;99.90
22629;DHT22;11481;53.694;9.910;2023-12-22T08:05:39;3.90;99.90
22629;DHT22;11481;53.694;9.910;2023-12-22T08:08:06;3.40;99.90
22629;DHT22;11481;53.694;9.910;2023-12-22T08:10:33;2.80;99.90
22629;DHT22;11481;53.694;9.910;2023-12-22T08:13:00;2.60;99.90
22629;DHT22;11481;53.694;9.910;2023-12-22T08:15:26;2.70;99.90
22629;DHT22;11481;53.694;9.910;2023-12-22T08:18:02;2.70;99.90
22629;DHT22;11481;53.694;9.910;2023-12-22T08:20:29;2.80;99.90
22629;DHT22;11481;53.694;9.910;2023-12-22T08:23:02;2.80;99.90
22629;DHT22;11481;53.694;9.910;2023-12-22T08:25:35;2.80;99.90
22629;DHT22;11481;53.694;9.910;2023-12-22T08:28:02;2.90;99.90
22629;DHT22;11481;53.694;9.910;2023-12-22T08:30:29;3.00;99.90
22629;DHT22;11481;53.694;9.910;2023-12-22T08:32:56;3.00;99.90
22629;DHT22;11481;53.694;9.910;2023-12-22T08:35:23;3.00;99.90
22629;DHT22;11481;53.694;9.910;2023-12-22T08:37:50;3.10;99.90
22629;DHT22;11481;53.694;9.910;2023-12-22T08:40:17;3.10;99.90
22629;DHT22;11481;53.694;9.910;2023-12-22T08:42:44;3.20;99.90
22629;DHT22;11481;53.694;9.910;2023-12-22T08:45:10;3.30;99.90
22629;DHT22;11481;53.694;9.910;2023-12-22T08:47:37;3.40;99.90
22629;DHT22;11481;53.694;9.910;2023-12-22T08:50:04;3.50;99.90
22629;DHT22;11481;53.694;9.910;2023-12-22T08:52:34;3.60;99.90
22629;DHT22;11481;53.694;9.910;2023-12-22T08:55:01;3.70;99.90
22629;DHT22;11481;53.694;9.910;2023-12-22T08:57:28;3.70;99.90
22629;DHT22;11481;53.694;9.910;2023-12-22T08:59:54;3.80;99.90
22629;DHT22;11481;53.694;9.910;2023-12-22T09:02:22;3.90;99.90
22629;DHT22;11481;53.694;9.910;2023-12-22T09:04:48;4.00;99.90
22629;DHT22;11481;53.694;9.910;2023-12-22T09:07:15;4.00;99.90
22629;DHT22;11481;53.694;9.910;2023-12-22T09:09:42;4.00;99.90
22629;DHT22;11481;53.694;9.910;2023-12-22T09:12:09;4.00;99.90
22629;DHT22;11481;53.694;9.910;2023-12-22T09:14:35;3.90;99.90
22629;DHT22;11481;53.694;9.910;2023-12-22T09:17:02;4.00;99.90
22629;DHT22;11481;53.694;9.910;2023-12-22T09:19:32;4.10;99.90
22629;DHT22;11481;53.694;9.910;2023-12-22T09:21:59;5.40;99.90
22629;DHT22;11481;53.694;9.910;2023-12-22T09:24:26;4.30;99.90
22629;DHT22;11481;53.694;9.910;2023-12-22T09:26:53;4.40;99.90
22629;DHT22;11481;53.694;9.910;2023-12-22T09:29:19;4.50;99.90
22629;DHT22;11481;53.694;9.910;2023-12-22T09:31:48;4.60;99.90
22629;DHT22;11481;53.694;9.910;2023-12-22T09:34:14;4.70;99.90
22629;DHT22;11481;53.694;9.910;2023-12-22T09:36:41;4.70;99.90
22629;DHT22;11481;53.694;9.910;2023-12-22T09:39:08;4.80;99.90
22629;DHT22;11481;53.694;9.910;2023-12-22T09:41:35;4.80;99.90
22629;DHT22;11481;53.694;9.910;2023-12-22T09:44:03;4.90;99.90
22629;DHT22;11481;53.694;9.910;2023-12-22T09:46:31;5.00;99.90
22629;DHT22;11481;53.694;9.910;2023-12-22T09:48:58;5.00;99.90
22629;DHT22;11481;53.694;9.910;2023-12-22T09:51:27;5.00;99.90
22629;DHT22;11481;53.694;9.910;2023-12-22T09:53:55;5.00;99.90
22629;DHT22;11481;53.694;9.910;2023-12-22T09:56:23;5.00;99.90
22629;DHT22;11481;53.694;9.910;2023-12-22T09:58:51;5.10;99.90
22629;DHT22;11481;53.694;9.910;2023-12-22T10:01:20;5.10;99.90
22629;DHT22;11481;53.694;9.910;2023-12-22T10:03:49;5.00;99.90
22629;DHT22;11481;53.694;9.910;2023-12-22T10:06:16;5.00;99.90
22629;DHT22;11481;53.694;9.910;2023-12-22T10:08:47;5.00;99.90
22629;DHT22;11481;53.694;9.910;2023-12-22T10:11:17;4.90;99.90
22629;DHT22;11481;53.694;9.910;2023-12-22T10:13:45;5.00;99.90
22629;DHT22;11481;53.694;9.910;2023-12-22T10:16:12;5.00;99.90
22629;DHT22;11481;53.694;9.910;2023-12-22T10:18:39;5.00;99.90
22629;DHT22;11481;53.694;9.910;2023-12-22T10:21:06;5.10;99.90
22629;DHT22;11481;53.694;9.910;2023-12-22T10:23:33;5.10;99.90
22629;DHT22;11481;53.694;9.910;2023-12-22T10:25:59;5.10;99.90
22629;DHT22;11481;53.694;9.910;2023-12-22T10:28:27;5.00;99.90
22629;DHT22;11481;53.694;9.910;2023-12-22T10:30:56;5.10;99.90
22629;DHT22;11481;53.694;9.910;2023-12-22T10:33:25;5.10;99.90
22629;DHT22;11481;53.694;9.910;2023-12-22T10:35:53;5.10;99.90
22629;DHT22;11481;53.694;9.910;2023-12-22T10:38:20;5.20;99.90
22629;DHT22;11481;53.694;9.910;2023-12-22T10:40:47;5.20;99.90
22629;DHT22;11481;53.694;9.910;2023-12-22T10:43:14;5.20;99.90
22629;DHT22;11481;53.694;9.910;2023-12-22T10:45:42;5.20;99.90
22629;DHT22;11481;53.694;9.910;2023-12-22T10:48:08;5.20;99.90
22629;DHT22;11481;53.694;9.910;2023-12-22T10:50:39;5.30;99.90
22629;DHT22;11481;53.694;9.910;2023-12-22T10:53:06;5.20;99.90
22629;DHT22;11481;53.694;9.910;2023-12-22T10:55:34;5.30;99.90
22629;DHT22;11481;53.694;9.910;2023-12-22T10:58:03;5.30;99.90
22629;DHT22;11481;53.694;9.910;2023-12-22T11:00:32;5.20;99.90
22629;DHT22;11481;53.694;9.910;2023-12-22T11:03:08;5.20;99.90
22629;DHT22;11481;53.694;9.910;2023-12-22T11:05:37;5.20;99.90
22629;DHT22;11481;53.694;9.910;2023-12-22T11:08:07;5.20;99.90
22629;DHT22;11481;53.694;9.910;2023-12-22T11:10:39;5.20;99.90
22629;DHT22;11481;53.694;9.910;2023-12-22T11:13:09;5.20;99.90
22629;DHT22;11481;53.694;9.910;2023-12-22T11:15:36;5.10;99.90
22629;DHT22;11481;53.694;9.910;2023-12-22T11:18:04;5.20;99.90
22629;DHT22;11481;53.694;9.910;2023-12-22T11:20:32;5.10;99.90
22629;DHT22;11481;53.694;9.910;2023-12-22T11:23:00;5.10;99.90
22629;DHT22;11481;53.694;9.910;2023-12-22T11:25:28;5.10;99.90
22629;DHT22;11481;53.694;9.910;2023-12-22T11:27:59;5.20;99.90
22629;DHT22;11481;53.694;9.910;2023-12-22T11:30:26;5.80;99.90
22629;DHT22;11481;53.694;9.910;2023-12-22T11:32:54;5.40;99.90
22629;DHT22;11481;53.694;9.910;2023-12-22T11:35:23;5.00;99.90
22629;DHT22;11481;53.694;9.910;2023-12-22T11:38:00;5.10;99.90
22629;DHT22;11481;53.694;9.910;2023-12-22T11:40:28;5.20;99.90
22629;DHT22;11481;53.694;9.910;2023-12-22T11:42:56;5.20;99.90
22629;DHT22;11481;53.694;9.910;2023-12-22T11:45:23;5.30;99.90
22629;DHT22;11481;53.694;9.910;2023-12-22T11:47:50;5.40;99.90
22629;DHT22;11481;53.694;9.910;2023-12-22T11:50:28;5.40;99.90
22629;DHT22;11481;53.694;9.910;2023-12-22T11:52:56;5.40;99.90
22629;DHT22;11481;53.694;9.910;2023-12-22T11:58:38;5.50;99.90
22629;DHT22;11481;53.694;9.910;2023-12-22T12:01:06;5.60;99.90
22629;DHT22;11481;53.694;9.910;2023-12-22T12:03:55;5.60;99.90
22629;DHT22;11481;53.694;9.910;2023-12-22T12:08:58;5.80;99.90
22629;DHT22;11481;53.694;9.910;2023-12-22T12:14:29;5.70;99.90
22629;DHT22;11481;53.694;9.910;2023-12-22T12:17:05;5.80;99.90
22629;DHT22;11481;53.694;9.910;2023-12-22T12:19:37;5.80;99.90
22629;DHT22;11481;53.694;9.910;2023-12-22T12:22:04;5.80;99.90
22629;DHT22;11481;53.694;9.910;2023-12-22T12:24:31;5.80;99.90
22629;DHT22;11481;53.694;9.910;2023-12-22T12:26:58;5.70;99.90
22629;DHT22;11481;53.694;9.910;2023-12-22T12:29:25;5.70;99.90
22629;DHT22;11481;53.694;9.910;2023-12-22T12:31:51;5.70;99.90
22629;DHT22;11481;53.694;9.910;2023-12-22T12:34:18;5.80;99.90
22629;DHT22;11481;53.694;9.910;2023-12-22T12:36:48;5.80;99.90
22629;DHT22;11481;53.694;9.910;2023-12-22T12:39:17;5.80;99.90
22629;DHT22;11481;53.694;9.910;2023-12-22T12:41:52;5.70;99.90
22629;DHT22;11481;53.694;9.910;2023-12-22T12:44:20;5.40;99.90
22629;DHT22;11481;53.694;9.910;2023-12-22T12:46:48;5.00;99.90
22629;DHT22;11481;53.694;9.910;2023-12-22T12:49:15;4.60;99.90
22629;DHT22;11481;53.694;9.910;2023-12-22T12:51:47;4.40;99.90
22629;DHT22;11481;53.694;9.910;2023-12-22T12:54:14;4.50;99.90
22629;DHT22;11481;53.694;9.910;2023-12-22T12:56:46;4.40;99.90
22629;DHT22;11481;53.694;9.910;2023-12-22T12:59:15;4.40;99.90
22629;DHT22;11481;53.694;9.910;2023-12-22T13:01:45;4.40;99.90
22629;DHT22;11481;53.694;9.910;2023-12-22T13:04:13;4.30;99.90
22629;DHT22;11481;53.694;9.910;2023-12-22T13:06:44;4.30;99.90
22629;DHT22;11481;53.694;9.910;2023-12-22T13:09:11;4.40;99.90
22629;DHT22;11481;53.694;9.910;2023-12-22T13:11:40;4.50;99.90
22629;DHT22;11481;53.694;9.910;2023-12-22T13:14:21;4.50;99.90
22629;DHT22;11481;53.694;9.910;2023-12-22T13:16:48;4.60;99.90
22629;DHT22;11481;53.694;9.910;2023-12-22T13:19:15;4.70;99.90
22629;DHT22;11481;53.694;9.910;2023-12-22T13:21:42;4.80;99.90
22629;DHT22;11481;53.694;9.910;2023-12-22T13:24:13;4.80;99.90
22629;DHT22;11481;53.694;9.910;2023-12-22T13:26:41;4.90;99.90
22629;DHT22;11481;53.694;9.910;2023-12-22T13:29:08;4.80;99.90
22629;DHT22;11481;53.694;9.910;2023-12-22T13:31:40;4.70;99.90
22629;DHT22;11481;53.694;9.910;2023-12-22T13:34:10;4.50;99.90
22629;DHT22;11481;53.694;9.910;2023-12-22T13:36:38;4.50;99.90
22629;DHT22;11481;53.694;9.910;2023-12-22T13:39:08;4.40;99.90
22629;DHT22;11481;53.694;9.910;2023-12-22T13:41:38;4.40;99.90
22629;DHT22;11481;53.694;9.910;2023-12-22T13:44:07;4.30;99.90
22629;DHT22;11481;53.694;9.910;2023-12-22T13:46:34;4.30;99.90
22629;DHT22;11481;53.694;9.910;2023-12-22T13:49:02;4.40;99.90
22629;DHT22;11481;53.694;9.910;2023-12-22T13:51:43;4.40;99.90
22629;DHT22;11481;53.694;9.910;2023-12-22T13:54:11;4.40;99.90
22629;DHT22;11481;53.694;9.910;2023-12-22T13:56:38;4.50;99.90
22629;DHT22;11481;53.694;9.910;2023-12-22T13:59:07;4.60;99.90
22629;DHT22;11481;53.694;9.910;2023-12-22T14:01:34;4.60;99.90
22629;DHT22;11481;53.694;9.910;2023-12-22T14:04:01;4.60;99.90
22629;DHT22;11481;53.694;9.910;2023-12-22T14:06:29;4.70;99.90
22629;DHT22;11481;53.694;9.910;2023-12-22T14:08:56;4.70;99.90
22629;DHT22;11481;53.694;9.910;2023-12-22T14:11:23;4.70;99.90
22629;DHT22;11481;53.694;9.910;2023-12-22T14:13:49;4.80;99.90
22629;DHT22;11481;53.694;9.910;2023-12-22T14:16:16;4.80;99.90
22629;DHT22;11481;53.694;9.910;2023-12-22T14:18:43;5.40;99.90
22629;DHT22;11481;53.694;9.910;2023-12-22T14:21:10;4.90;99.90
22629;DHT22;11481;53.694;9.910;2023-12-22T14:23:37;4.80;99.90
22629;DHT22;11481;53.694;9.910;2023-12-22T14:26:04;4.90;99.90
22629;DHT22;11481;53.694;9.910;2023-12-22T14:28:32;4.80;99.90
22629;DHT22;11481;53.694;9.910;2023-12-22T14:30:59;4.90;99.90
22629;DHT22;11481;53.694;9.910;2023-12-22T14:33:26;4.90;99.90
22629;DHT22;11481;53.694;9.910;2023-12-22T14:35:53;5.00;99.90
22629;DHT22;11481;53.694;9.910;2023-12-22T14:38:20;5.00;99.90
22629;DHT22;11481;53.694;9.910;2023-12-22T14:40:47;4.90;99.90
22629;DHT22;11481;53.694;9.910;2023-12-22T14:43:13;5.00;99.90
22629;DHT22;11481;53.694;9.910;2023-12-22T14:45:40;5.00;99.90
22629;DHT22;11481;53.694;9.910;2023-12-22T14:48:07;5.00;99.90
22629;DHT22;11481;53.694;9.910;2023-12-22T14:50:34;4.90;99.90
22629;DHT22;11481;53.694;9.910;2023-12-22T14:53:01;4.90;99.90
22629;DHT22;11481;53.694;9.910;2023-12-22T14:55:27;5.10;99.90
22629;DHT22;11481;53.694;9.910;2023-12-22T14:57:54;5.00;99.90
22629;DHT22;11481;53.694;9.910;2023-12-22T15:00:21;5.10;99.90
22629;DHT22;11481;53.694;9.910;2023-12-22T15:02:48;5.00;99.90
22629;DHT22;11481;53.694;9.910;2023-12-22T15:05:15;5.00;99.90
22629;DHT22;11481;53.694;9.910;2023-12-22T15:07:43;5.10;99.90
22629;DHT22;11481;53.694;9.910;2023-12-22T15:10:10;5.10;99.90
22629;DHT22;11481;53.694;9.910;2023-12-22T15:12:37;5.00;99.90
22629;DHT22;11481;53.694;9.910;2023-12-22T15:15:06;5.00;99.90
22629;DHT22;11481;53.694;9.910;2023-12-22T15:17:33;5.00;99.90
22629;DHT22;11481;53.694;9.910;2023-12-22T15:20:01;5.10;99.90
22629;DHT22;11481;53.694;9.910;2023-12-22T15:22:32;5.00;99.90
22629;DHT22;11481;53.694;9.910;2023-12-22T15:24:59;5.00;99.90
22629;DHT22;11481;53.694;9.910;2023-12-22T15:27:25;4.90;99.90
22629;DHT22;11481;53.694;9.910;2023-12-22T15:29:53;5.00;99.90
22629;DHT22;11481;53.694;9.910;2023-12-22T15:32:20;5.00;99.90
22629;DHT22;11481;53.694;9.910;2023-12-22T15:34:47;5.10;99.90
22629;DHT22;11481;53.694;9.910;2023-12-22T15:37:14;5.10;99.90
22629;DHT22;11481;53.694;9.910;2023-12-22T15:39:40;5.00;99.90
22629;DHT22;11481;53.694;9.910;2023-12-22T15:42:07;5.00;99.90
22629;DHT22;11481;53.694;9.910;2023-12-22T15:44:39;5.00;99.90
22629;DHT22;11481;53.694;9.910;2023-12-22T15:47:06;5.00;99.90
22629;DHT22;11481;53.694;9.910;2023-12-22T15:49:33;5.00;99.90
22629;DHT22;11481;53.694;9.910;2023-12-22T15:52:03;4.90;99.90
22629;DHT22;11481;53.694;9.910;2023-12-22T15:54:30;4.90;99.90
22629;DHT22;11481;53.694;9.910;2023-12-22T15:56:56;4.90;99.90
22629;DHT22;11481;53.694;9.910;2023-12-22T15:59:23;5.00;99.90